sensor_id;sensor_type;location;lat;lon;timestamp;P1;durP1;ratioP1;P2;durP2;ratioP2
12052;SDS011;6087;48.982;12.064;2023-07-02T00:02:25;0.50;;;0.50;;
12052;SDS011;6087;48.982;12.064;2023-07-02T00:04:52;0.55;;;0.55;;
12052;SDS011;6087;48.982;12.064;2023-07-02T00:07:19;0.40;;;0.40;;
12052;SDS011;6087;48.982;12.064;2023-07-02T00:09:46;1.40;;;0.50;;
12052;SDS011;6087;48.982;12.064;2023-07-02T00:12:13;0.70;;;0.68;;
12052;SDS011;6087;48.982;12.064;2023-07-02T00:14:46;0.52;;;0.52;;
12052;SDS011;6087;48.982;12.064;2023-07-02T00:17:14;0.55;;;0.55;;
12052;SDS011;6087;48.982;12.064;2023-07-02T00:19:44;0.77;;;0.77;;
12052;SDS011;6087;48.982;12.064;2023-07-02T00:22:17;1.63;;;0.98;;
12052;SDS011;6087;48.982;12.064;2023-07-02T00:24:44;0.80;;;0.80;;
12052;SDS011;6087;48.982;12.064;2023-07-02T00:27:11;1.23;;;0.80;;
12052;SDS011;6087;48.982;12.064;2023-07-02T00:29:38;0.80;;;0.80;;
12052;SDS011;6087;48.982;12.064;2023-07-02T00:32:21;1.08;;;0.95;;
12052;SDS011;6087;48.982;12.064;2023-07-02T00:34:47;1.00;;;1.00;;
12052;SDS011;6087;48.982;12.064;2023-07-02T00:37:14;1.00;;;1.00;;
12052;SDS011;6087;48.982;12.064;2023-07-02T00:39:41;1.52;;;1.33;;
12052;SDS011;6087;48.982;12.064;2023-07-02T00:42:08;1.40;;;1.30;;
12052;SDS011;6087;48.982;12.064;2023-07-02T00:44:36;5.50;;;1.55;;
12052;SDS011;6087;48.982;12.064;2023-07-02T00:47:06;1.25;;;1.25;;
12052;SDS011;6087;48.982;12.064;2023-07-02T00:49:34;2.65;;;1.40;;
12052;SDS011;6087;48.982;12.064;2023-07-02T00:52:04;1.33;;;1.23;;
12052;SDS011;6087;48.982;12.064;2023-07-02T00:54:34;1.30;;;1.20;;
12052;SDS011;6087;48.982;12.064;2023-07-02T00:57:02;1.45;;;1.35;;
12052;SDS011;6087;48.982;12.064;2023-07-02T00:59:30;1.40;;;1.30;;
12052;SDS011;6087;48.982;12.064;2023-07-02T01:02:00;2.15;;;1.95;;
12052;SDS011;6087;48.982;12.064;2023-07-02T01:04:27;2.40;;;2.20;;
12052;SDS011;6087;48.982;12.064;2023-07-02T01:06:56;2.08;;;1.98;;
12052;SDS011;6087;48.982;12.064;2023-07-02T01:09:23;2.30;;;2.20;;
12052;SDS011;6087;48.982;12.064;2023-07-02T01:11:52;2.63;;;2.40;;
12052;SDS011;6087;48.982;12.064;2023-07-02T01:14:22;3.05;;;2.80;;
12052;SDS011;6087;48.982;12.064;2023-07-02T01:16:53;3.10;;;2.90;;
12052;SDS011;6087;48.982;12.064;2023-07-02T01:19:22;4.68;;;3.40;;
12052;SDS011;6087;48.982;12.064;2023-07-02T01:21:58;5.25;;;2.80;;
12052;SDS011;6087;48.982;12.064;2023-07-02T01:24:26;2.65;;;2.45;;
12052;SDS011;6087;48.982;12.064;2023-07-02T01:26:53;2.50;;;2.30;;
12052;SDS011;6087;48.982;12.064;2023-07-02T01:29:21;2.13;;;2.03;;
12052;SDS011;6087;48.982;12.064;2023-07-02T01:31:48;2.20;;;2.10;;
12052;SDS011;6087;48.982;12.064;2023-07-02T01:34:15;3.33;;;2.03;;
12052;SDS011;6087;48.982;12.064;2023-07-02T01:36:43;2.05;;;1.90;;
12052;SDS011;6087;48.982;12.064;2023-07-02T01:39:10;2.42;;;2.13;;
12052;SDS011;6087;48.982;12.064;2023-07-02T01:41:37;2.53;;;2.33;;
12052;SDS011;6087;48.982;12.064;2023-07-02T01:44:08;2.25;;;2.10;;
12052;SDS011;6087;48.982;12.064;2023-07-02T01:46:35;3.42;;;2.42;;
12052;SDS011;6087;48.982;12.064;2023-07-02T01:49:02;2.53;;;2.33;;
12052;SDS011;6087;48.982;12.064;2023-07-02T01:51:29;2.47;;;2.20;;
12052;SDS011;6087;48.982;12.064;2023-07-02T01:53:57;1.98;;;1.88;;
12052;SDS011;6087;48.982;12.064;2023-07-02T01:56:24;2.08;;;1.98;;
12052;SDS011;6087;48.982;12.064;2023-07-02T01:58:51;2.35;;;2.15;;
12052;SDS011;6087;48.982;12.064;2023-07-02T02:01:18;2.13;;;1.90;;
12052;SDS011;6087;48.982;12.064;2023-07-02T02:03:45;1.88;;;1.77;;
12052;SDS011;6087;48.982;12.064;2023-07-02T02:06:11;1.75;;;1.65;;
12052;SDS011;6087;48.982;12.064;2023-07-02T02:08:38;2.08;;;1.75;;
12052;SDS011;6087;48.982;12.064;2023-07-02T02:11:07;2.65;;;1.80;;
12052;SDS011;6087;48.982;12.064;2023-07-02T02:13:36;1.85;;;1.70;;
12052;SDS011;6087;48.982;12.064;2023-07-02T02:16:03;1.83;;;1.58;;
12052;SDS011;6087;48.982;12.064;2023-07-02T02:18:30;1.48;;;1.38;;
12052;SDS011;6087;48.982;12.064;2023-07-02T02:20:57;2.65;;;1.60;;
12052;SDS011;6087;48.982;12.064;2023-07-02T02:23:24;1.75;;;1.50;;
12052;SDS011;6087;48.982;12.064;2023-07-02T02:25:55;1.52;;;1.42;;
12052;SDS011;6087;48.982;12.064;2023-07-02T02:28:23;1.58;;;1.48;;
12052;SDS011;6087;48.982;12.064;2023-07-02T02:30:50;2.05;;;1.80;;
12052;SDS011;6087;48.982;12.064;2023-07-02T02:33:23;2.03;;;1.58;;
12052;SDS011;6087;48.982;12.064;2023-07-02T02:35:56;2.67;;;1.77;;
12052;SDS011;6087;48.982;12.064;2023-07-02T02:38:22;2.13;;;1.90;;
12052;SDS011;6087;48.982;12.064;2023-07-02T02:40:49;2.00;;;1.80;;
12052;SDS011;6087;48.982;12.064;2023-07-02T02:43:16;1.50;;;1.35;;
12052;SDS011;6087;48.982;12.064;2023-07-02T02:45:45;2.42;;;1.50;;
12052;SDS011;6087;48.982;12.064;2023-07-02T02:48:11;1.60;;;1.50;;
12052;SDS011;6087;48.982;12.064;2023-07-02T02:50:38;2.78;;;1.50;;
12052;SDS011;6087;48.982;12.064;2023-07-02T02:53:08;1.90;;;1.70;;
12052;SDS011;6087;48.982;12.064;2023-07-02T02:55:37;2.08;;;1.52;;
12052;SDS011;6087;48.982;12.064;2023-07-02T02:58:04;1.42;;;1.33;;
12052;SDS011;6087;48.982;12.064;2023-07-02T03:00:31;3.35;;;1.95;;
12052;SDS011;6087;48.982;12.064;2023-07-02T03:02:59;2.10;;;1.80;;
12052;SDS011;6087;48.982;12.064;2023-07-02T03:05:26;1.67;;;1.55;;
12052;SDS011;6087;48.982;12.064;2023-07-02T03:07:53;1.67;;;1.40;;
12052;SDS011;6087;48.982;12.064;2023-07-02T03:10:20;1.85;;;1.75;;
12052;SDS011;6087;48.982;12.064;2023-07-02T03:12:47;1.65;;;1.55;;
12052;SDS011;6087;48.982;12.064;2023-07-02T03:15:14;2.92;;;1.50;;
12052;SDS011;6087;48.982;12.064;2023-07-02T03:17:42;2.25;;;1.40;;
12052;SDS011;6087;48.982;12.064;2023-07-02T03:20:19;2.63;;;1.90;;
12052;SDS011;6087;48.982;12.064;2023-07-02T03:22:46;2.83;;;2.00;;
12052;SDS011;6087;48.982;12.064;2023-07-02T03:25:14;1.60;;;1.38;;
12052;SDS011;6087;48.982;12.064;2023-07-02T03:27:44;3.38;;;1.50;;
12052;SDS011;6087;48.982;12.064;2023-07-02T03:30:13;1.67;;;1.58;;
12052;SDS011;6087;48.982;12.064;2023-07-02T03:32:43;2.75;;;1.90;;
12052;SDS011;6087;48.982;12.064;2023-07-02T03:35:10;3.22;;;1.70;;
12052;SDS011;6087;48.982;12.064;2023-07-02T03:37:38;2.33;;;2.00;;
12052;SDS011;6087;48.982;12.064;2023-07-02T03:40:07;2.17;;;1.80;;
12052;SDS011;6087;48.982;12.064;2023-07-02T03:42:34;1.65;;;1.55;;
12052;SDS011;6087;48.982;12.064;2023-07-02T03:45:01;1.67;;;1.42;;
12052;SDS011;6087;48.982;12.064;2023-07-02T03:47:29;2.40;;;1.83;;
12052;SDS011;6087;48.982;12.064;2023-07-02T03:49:56;2.05;;;1.90;;
12052;SDS011;6087;48.982;12.064;2023-07-02T03:52:23;1.70;;;1.60;;
12052;SDS011;6087;48.982;12.064;2023-07-02T03:54:51;2.60;;;1.70;;
12052;SDS011;6087;48.982;12.064;2023-07-02T03:57:18;3.03;;;1.92;;
12052;SDS011;6087;48.982;12.064;2023-07-02T03:59:47;2.00;;;1.65;;
12052;SDS011;6087;48.982;12.064;2023-07-02T04:02:17;1.67;;;1.50;;
12052;SDS011;6087;48.982;12.064;2023-07-02T04:04:51;2.50;;;1.92;;
12052;SDS011;6087;48.982;12.064;2023-07-02T04:07:18;2.30;;;1.70;;
12052;SDS011;6087;48.982;12.064;2023-07-02T04:09:45;1.70;;;1.60;;
12052;SDS011;6087;48.982;12.064;2023-07-02T04:12:13;2.20;;;1.83;;
12052;SDS011;6087;48.982;12.064;2023-07-02T04:14:40;2.13;;;1.73;;
12052;SDS011;6087;48.982;12.064;2023-07-02T04:17:07;3.45;;;1.70;;
12052;SDS011;6087;48.982;12.064;2023-07-02T04:19:34;1.80;;;1.45;;
12052;SDS011;6087;48.982;12.064;2023-07-02T04:22:01;2.05;;;1.92;;
12052;SDS011;6087;48.982;12.064;2023-07-02T04:24:28;1.63;;;1.52;;
12052;SDS011;6087;48.982;12.064;2023-07-02T04:26:55;1.70;;;1.60;;
12052;SDS011;6087;48.982;12.064;2023-07-02T04:29:23;2.20;;;2.00;;
12052;SDS011;6087;48.982;12.064;2023-07-02T04:31:50;3.00;;;1.85;;
12052;SDS011;6087;48.982;12.064;2023-07-02T04:34:17;1.85;;;1.65;;
12052;SDS011;6087;48.982;12.064;2023-07-02T04:36:46;2.67;;;2.28;;
12052;SDS011;6087;48.982;12.064;2023-07-02T04:39:14;1.67;;;1.58;;
12052;SDS011;6087;48.982;12.064;2023-07-02T04:41:40;1.70;;;1.60;;
12052;SDS011;6087;48.982;12.064;2023-07-02T04:44:07;2.00;;;1.88;;
12052;SDS011;6087;48.982;12.064;2023-07-02T04:46:36;2.05;;;1.88;;
12052;SDS011;6087;48.982;12.064;2023-07-02T04:49:03;2.72;;;1.77;;
12052;SDS011;6087;48.982;12.064;2023-07-02T04:51:30;2.10;;;2.00;;
12052;SDS011;6087;48.982;12.064;2023-07-02T04:53:57;5.20;;;1.95;;
12052;SDS011;6087;48.982;12.064;2023-07-02T04:56:24;2.10;;;1.73;;
12052;SDS011;6087;48.982;12.064;2023-07-02T04:58:51;2.25;;;2.05;;
12052;SDS011;6087;48.982;12.064;2023-07-02T05:01:18;3.30;;;1.67;;
12052;SDS011;6087;48.982;12.064;2023-07-02T05:03:47;2.60;;;1.65;;
12052;SDS011;6087;48.982;12.064;2023-07-02T05:06:13;2.25;;;1.80;;
12052;SDS011;6087;48.982;12.064;2023-07-02T05:08:40;2.30;;;2.13;;
12052;SDS011;6087;48.982;12.064;2023-07-02T05:11:07;2.22;;;2.00;;
12052;SDS011;6087;48.982;12.064;2023-07-02T05:13:34;1.92;;;1.75;;
12052;SDS011;6087;48.982;12.064;2023-07-02T05:16:01;1.80;;;1.70;;
12052;SDS011;6087;48.982;12.064;2023-07-02T05:18:28;1.95;;;1.60;;
12052;SDS011;6087;48.982;12.064;2023-07-02T05:20:56;2.22;;;1.77;;
12052;SDS011;6087;48.982;12.064;2023-07-02T05:23:29;2.53;;;2.08;;
12052;SDS011;6087;48.982;12.064;2023-07-02T05:25:56;3.05;;;1.88;;
12052;SDS011;6087;48.982;12.064;2023-07-02T05:28:23;2.33;;;1.63;;
12052;SDS011;6087;48.982;12.064;2023-07-02T05:30:50;3.95;;;1.77;;
12052;SDS011;6087;48.982;12.064;2023-07-02T05:33:20;2.20;;;1.85;;
12052;SDS011;6087;48.982;12.064;2023-07-02T05:35:47;2.15;;;2.00;;
12052;SDS011;6087;48.982;12.064;2023-07-02T05:38:15;3.20;;;1.80;;
12052;SDS011;6087;48.982;12.064;2023-07-02T05:40:44;1.77;;;1.67;;
12052;SDS011;6087;48.982;12.064;2023-07-02T05:43:11;2.10;;;1.67;;
12052;SDS011;6087;48.982;12.064;2023-07-02T05:45:38;2.47;;;1.67;;
12052;SDS011;6087;48.982;12.064;2023-07-02T05:48:05;2.00;;;1.90;;
12052;SDS011;6087;48.982;12.064;2023-07-02T05:50:32;3.95;;;1.52;;
12052;SDS011;6087;48.982;12.064;2023-07-02T05:52:59;3.30;;;1.80;;
12052;SDS011;6087;48.982;12.064;2023-07-02T05:55:27;2.00;;;1.90;;
12052;SDS011;6087;48.982;12.064;2023-07-02T05:57:54;5.85;;;1.80;;
12052;SDS011;6087;48.982;12.064;2023-07-02T06:00:22;2.58;;;2.38;;
12052;SDS011;6087;48.982;12.064;2023-07-02T06:02:49;2.58;;;1.70;;
12052;SDS011;6087;48.982;12.064;2023-07-02T06:05:16;1.80;;;1.70;;
12052;SDS011;6087;48.982;12.064;2023-07-02T06:07:43;2.22;;;1.70;;
12052;SDS011;6087;48.982;12.064;2023-07-02T06:10:10;6.65;;;1.88;;
12052;SDS011;6087;48.982;12.064;2023-07-02T06:12:38;2.45;;;1.30;;
12052;SDS011;6087;48.982;12.064;2023-07-02T06:15:05;2.95;;;1.80;;
12052;SDS011;6087;48.982;12.064;2023-07-02T06:17:33;1.67;;;1.58;;
12052;SDS011;6087;48.982;12.064;2023-07-02T06:20:00;2.65;;;1.70;;
12052;SDS011;6087;48.982;12.064;2023-07-02T06:22:29;6.15;;;1.90;;
12052;SDS011;6087;48.982;12.064;2023-07-02T06:24:59;4.13;;;1.77;;
12052;SDS011;6087;48.982;12.064;2023-07-02T06:27:28;4.25;;;1.92;;
12052;SDS011;6087;48.982;12.064;2023-07-02T06:29:56;2.38;;;2.17;;
12052;SDS011;6087;48.982;12.064;2023-07-02T06:32:23;3.10;;;1.73;;
12052;SDS011;6087;48.982;12.064;2023-07-02T06:34:50;2.80;;;1.80;;
12052;SDS011;6087;48.982;12.064;2023-07-02T06:37:17;4.00;;;2.10;;
12052;SDS011;6087;48.982;12.064;2023-07-02T06:39:44;3.35;;;1.92;;
12052;SDS011;6087;48.982;12.064;2023-07-02T06:42:11;4.65;;;2.58;;
12052;SDS011;6087;48.982;12.064;2023-07-02T06:44:40;4.32;;;1.90;;
12052;SDS011;6087;48.982;12.064;2023-07-02T06:47:09;4.63;;;2.35;;
12052;SDS011;6087;48.982;12.064;2023-07-02T06:49:36;3.40;;;1.98;;
12052;SDS011;6087;48.982;12.064;2023-07-02T06:52:03;4.68;;;2.38;;
12052;SDS011;6087;48.982;12.064;2023-07-02T06:54:30;2.60;;;2.17;;
12052;SDS011;6087;48.982;12.064;2023-07-02T06:56:57;4.00;;;2.13;;
12052;SDS011;6087;48.982;12.064;2023-07-02T06:59:24;3.47;;;2.38;;
12052;SDS011;6087;48.982;12.064;2023-07-02T07:01:51;2.67;;;2.47;;
12052;SDS011;6087;48.982;12.064;2023-07-02T07:04:20;5.43;;;3.00;;
12052;SDS011;6087;48.982;12.064;2023-07-02T07:06:46;4.28;;;3.22;;
12052;SDS011;6087;48.982;12.064;2023-07-02T07:09:14;7.85;;;3.47;;
12052;SDS011;6087;48.982;12.064;2023-07-02T07:11:40;5.88;;;2.80;;
12052;SDS011;6087;48.982;12.064;2023-07-02T07:14:07;5.95;;;3.33;;
12052;SDS011;6087;48.982;12.064;2023-07-02T07:16:34;6.40;;;3.83;;
12052;SDS011;6087;48.982;12.064;2023-07-02T07:19:01;6.47;;;3.80;;
12052;SDS011;6087;48.982;12.064;2023-07-02T07:21:29;8.10;;;4.40;;
12052;SDS011;6087;48.982;12.064;2023-07-02T07:23:57;6.95;;;4.22;;
12052;SDS011;6087;48.982;12.064;2023-07-02T07:26:23;7.93;;;4.75;;
12052;SDS011;6087;48.982;12.064;2023-07-02T07:28:50;9.23;;;5.15;;
12052;SDS011;6087;48.982;12.064;2023-07-02T07:31:19;9.75;;;4.90;;
12052;SDS011;6087;48.982;12.064;2023-07-02T07:33:46;8.10;;;4.43;;
12052;SDS011;6087;48.982;12.064;2023-07-02T07:36:13;9.00;;;5.15;;
12052;SDS011;6087;48.982;12.064;2023-07-02T07:38:42;10.63;;;5.10;;
12052;SDS011;6087;48.982;12.064;2023-07-02T07:41:09;8.45;;;5.07;;
12052;SDS011;6087;48.982;12.064;2023-07-02T07:43:36;8.50;;;5.43;;
12052;SDS011;6087;48.982;12.064;2023-07-02T07:46:03;11.07;;;6.40;;
12052;SDS011;6087;48.982;12.064;2023-07-02T07:48:30;10.52;;;6.32;;
12052;SDS011;6087;48.982;12.064;2023-07-02T07:50:57;11.48;;;6.47;;
12052;SDS011;6087;48.982;12.064;2023-07-02T07:53:24;11.35;;;6.35;;
12052;SDS011;6087;48.982;12.064;2023-07-02T07:55:52;9.93;;;6.65;;
12052;SDS011;6087;48.982;12.064;2023-07-02T07:58:19;11.68;;;6.80;;
12052;SDS011;6087;48.982;12.064;2023-07-02T08:00:46;14.07;;;7.13;;
12052;SDS011;6087;48.982;12.064;2023-07-02T08:03:13;12.25;;;7.30;;
12052;SDS011;6087;48.982;12.064;2023-07-02T08:05:40;12.43;;;7.80;;
12052;SDS011;6087;48.982;12.064;2023-07-02T08:08:07;11.40;;;7.97;;
12052;SDS011;6087;48.982;12.064;2023-07-02T08:10:34;11.13;;;7.65;;
12052;SDS011;6087;48.982;12.064;2023-07-02T08:13:05;12.77;;;7.25;;
12052;SDS011;6087;48.982;12.064;2023-07-02T08:15:31;14.40;;;8.30;;
12052;SDS011;6087;48.982;12.064;2023-07-02T08:17:58;11.25;;;7.80;;
12052;SDS011;6087;48.982;12.064;2023-07-02T08:20:25;12.40;;;7.50;;
12052;SDS011;6087;48.982;12.064;2023-07-02T08:22:52;10.90;;;7.68;;
12052;SDS011;6087;48.982;12.064;2023-07-02T08:25:19;11.93;;;6.93;;
12052;SDS011;6087;48.982;12.064;2023-07-02T08:27:47;13.75;;;7.97;;
12052;SDS011;6087;48.982;12.064;2023-07-02T08:30:15;13.50;;;7.15;;
12052;SDS011;6087;48.982;12.064;2023-07-02T08:32:42;11.10;;;6.82;;
12052;SDS011;6087;48.982;12.064;2023-07-02T08:35:10;10.40;;;6.70;;
12052;SDS011;6087;48.982;12.064;2023-07-02T08:37:36;12.32;;;7.43;;
12052;SDS011;6087;48.982;12.064;2023-07-02T08:40:04;12.98;;;7.55;;
12052;SDS011;6087;48.982;12.064;2023-07-02T08:42:32;11.57;;;7.38;;
12052;SDS011;6087;48.982;12.064;2023-07-02T08:45:00;14.18;;;8.13;;
12052;SDS011;6087;48.982;12.064;2023-07-02T08:47:29;11.80;;;6.97;;
12052;SDS011;6087;48.982;12.064;2023-07-02T08:49:56;12.07;;;7.68;;
12052;SDS011;6087;48.982;12.064;2023-07-02T08:52:22;16.63;;;7.72;;
12052;SDS011;6087;48.982;12.064;2023-07-02T08:54:49;13.70;;;7.85;;
12052;SDS011;6087;48.982;12.064;2023-07-02T08:57:16;12.07;;;6.97;;
12052;SDS011;6087;48.982;12.064;2023-07-02T08:59:43;12.52;;;7.75;;
12052;SDS011;6087;48.982;12.064;2023-07-02T09:02:11;12.77;;;7.40;;
12052;SDS011;6087;48.982;12.064;2023-07-02T09:04:39;12.10;;;7.28;;
12052;SDS011;6087;48.982;12.064;2023-07-02T09:07:07;9.48;;;6.88;;
12052;SDS011;6087;48.982;12.064;2023-07-02T09:09:44;12.07;;;6.47;;
12052;SDS011;6087;48.982;12.064;2023-07-02T09:12:21;11.77;;;7.18;;
12052;SDS011;6087;48.982;12.064;2023-07-02T09:14:53;11.18;;;6.57;;
12052;SDS011;6087;48.982;12.064;2023-07-02T09:17:21;12.05;;;7.07;;
12052;SDS011;6087;48.982;12.064;2023-07-02T09:19:50;14.02;;;7.25;;
12052;SDS011;6087;48.982;12.064;2023-07-02T09:22:17;9.60;;;6.10;;
12052;SDS011;6087;48.982;12.064;2023-07-02T09:24:50;9.82;;;6.68;;
12052;SDS011;6087;48.982;12.064;2023-07-02T09:27:32;9.40;;;6.45;;
12052;SDS011;6087;48.982;12.064;2023-07-02T09:30:07;11.32;;;7.05;;
12052;SDS011;6087;48.982;12.064;2023-07-02T09:32:35;12.43;;;6.70;;
12052;SDS011;6087;48.982;12.064;2023-07-02T09:35:04;9.48;;;6.10;;
12052;SDS011;6087;48.982;12.064;2023-07-02T09:37:31;12.68;;;6.82;;
12052;SDS011;6087;48.982;12.064;2023-07-02T09:39:58;12.05;;;6.70;;
12052;SDS011;6087;48.982;12.064;2023-07-02T09:42:26;9.85;;;5.85;;
12052;SDS011;6087;48.982;12.064;2023-07-02T09:44:54;10.52;;;6.32;;
12052;SDS011;6087;48.982;12.064;2023-07-02T09:47:24;10.88;;;7.07;;
12052;SDS011;6087;48.982;12.064;2023-07-02T09:49:53;14.25;;;6.68;;
12052;SDS011;6087;48.982;12.064;2023-07-02T09:52:22;10.52;;;7.15;;
12052;SDS011;6087;48.982;12.064;2023-07-02T09:54:50;14.73;;;8.55;;
12052;SDS011;6087;48.982;12.064;2023-07-02T09:57:17;10.13;;;6.50;;
12052;SDS011;6087;48.982;12.064;2023-07-02T09:59:44;9.68;;;6.78;;
12052;SDS011;6087;48.982;12.064;2023-07-02T10:02:11;11.18;;;6.82;;
12052;SDS011;6087;48.982;12.064;2023-07-02T10:04:39;9.45;;;6.85;;
12052;SDS011;6087;48.982;12.064;2023-07-02T10:07:07;11.80;;;6.50;;
12052;SDS011;6087;48.982;12.064;2023-07-02T10:09:36;11.57;;;6.82;;
12052;SDS011;6087;48.982;12.064;2023-07-02T10:12:14;10.30;;;6.50;;
12052;SDS011;6087;48.982;12.064;2023-07-02T10:14:42;10.40;;;6.38;;
12052;SDS011;6087;48.982;12.064;2023-07-02T10:17:10;15.13;;;7.05;;
12052;SDS011;6087;48.982;12.064;2023-07-02T10:19:37;10.55;;;6.60;;
12052;SDS011;6087;48.982;12.064;2023-07-02T10:22:16;10.95;;;6.90;;
12052;SDS011;6087;48.982;12.064;2023-07-02T10:24:51;11.95;;;6.78;;
12052;SDS011;6087;48.982;12.064;2023-07-02T10:27:32;10.82;;;6.88;;
12052;SDS011;6087;48.982;12.064;2023-07-02T10:30:00;12.35;;;6.88;;
12052;SDS011;6087;48.982;12.064;2023-07-02T10:32:28;11.00;;;6.60;;
12052;SDS011;6087;48.982;12.064;2023-07-02T10:34:56;10.00;;;6.90;;
12052;SDS011;6087;48.982;12.064;2023-07-02T10:37:23;11.68;;;7.07;;
12052;SDS011;6087;48.982;12.064;2023-07-02T10:39:52;11.57;;;7.43;;
12052;SDS011;6087;48.982;12.064;2023-07-02T10:42:19;9.82;;;6.68;;
12052;SDS011;6087;48.982;12.064;2023-07-02T10:44:47;11.38;;;7.00;;
12052;SDS011;6087;48.982;12.064;2023-07-02T10:47:17;11.57;;;6.97;;
12052;SDS011;6087;48.982;12.064;2023-07-02T10:49:44;15.13;;;7.63;;
12052;SDS011;6087;48.982;12.064;2023-07-02T10:52:11;12.85;;;7.22;;
12052;SDS011;6087;48.982;12.064;2023-07-02T10:54:39;12.32;;;7.32;;
12052;SDS011;6087;48.982;12.064;2023-07-02T10:57:08;11.55;;;7.43;;
12052;SDS011;6087;48.982;12.064;2023-07-02T10:59:37;9.05;;;6.22;;
12052;SDS011;6087;48.982;12.064;2023-07-02T11:02:06;10.57;;;6.78;;
12052;SDS011;6087;48.982;12.064;2023-07-02T11:04:35;11.35;;;7.85;;
12052;SDS011;6087;48.982;12.064;2023-07-02T11:07:03;13.57;;;7.35;;
12052;SDS011;6087;48.982;12.064;2023-07-02T11:09:30;10.55;;;6.50;;
12052;SDS011;6087;48.982;12.064;2023-07-02T11:12:05;10.10;;;7.03;;
12052;SDS011;6087;48.982;12.064;2023-07-02T11:14:34;11.75;;;6.85;;
12052;SDS011;6087;48.982;12.064;2023-07-02T11:17:03;14.68;;;6.95;;
12052;SDS011;6087;48.982;12.064;2023-07-02T11:19:31;8.13;;;5.70;;
12052;SDS011;6087;48.982;12.064;2023-07-02T11:21:58;12.30;;;7.10;;
12052;SDS011;6087;48.982;12.064;2023-07-02T11:24:26;15.90;;;7.05;;
12052;SDS011;6087;48.982;12.064;2023-07-02T11:26:54;10.27;;;6.93;;
12052;SDS011;6087;48.982;12.064;2023-07-02T11:29:21;12.25;;;6.82;;
12052;SDS011;6087;48.982;12.064;2023-07-02T11:31:50;10.60;;;7.43;;
12052;SDS011;6087;48.982;12.064;2023-07-02T11:34:18;9.93;;;7.53;;
12052;SDS011;6087;48.982;12.064;2023-07-02T11:36:46;10.20;;;6.95;;
12052;SDS011;6087;48.982;12.064;2023-07-02T11:39:19;10.85;;;6.57;;
12052;SDS011;6087;48.982;12.064;2023-07-02T11:41:47;11.82;;;6.97;;
12052;SDS011;6087;48.982;12.064;2023-07-02T11:44:15;9.88;;;6.93;;
12052;SDS011;6087;48.982;12.064;2023-07-02T11:46:42;9.75;;;6.85;;
12052;SDS011;6087;48.982;12.064;2023-07-02T11:49:11;10.15;;;7.47;;
12052;SDS011;6087;48.982;12.064;2023-07-02T11:51:38;13.10;;;7.60;;
12052;SDS011;6087;48.982;12.064;2023-07-02T11:54:09;11.77;;;7.72;;
12052;SDS011;6087;48.982;12.064;2023-07-02T11:56:36;12.07;;;7.07;;
12052;SDS011;6087;48.982;12.064;2023-07-02T11:59:03;12.60;;;7.40;;
12052;SDS011;6087;48.982;12.064;2023-07-02T12:01:30;10.63;;;6.80;;
12052;SDS011;6087;48.982;12.064;2023-07-02T12:03:57;10.13;;;7.03;;
12052;SDS011;6087;48.982;12.064;2023-07-02T12:06:26;11.30;;;7.28;;
12052;SDS011;6087;48.982;12.064;2023-07-02T12:08:52;10.27;;;6.95;;
12052;SDS011;6087;48.982;12.064;2023-07-02T12:11:19;9.65;;;6.53;;
12052;SDS011;6087;48.982;12.064;2023-07-02T12:13:46;9.32;;;7.32;;
12052;SDS011;6087;48.982;12.064;2023-07-02T12:16:13;10.95;;;6.95;;
12052;SDS011;6087;48.982;12.064;2023-07-02T12:18:40;10.38;;;6.90;;
12052;SDS011;6087;48.982;12.064;2023-07-02T12:21:07;12.32;;;7.43;;
12052;SDS011;6087;48.982;12.064;2023-07-02T12:23:35;12.77;;;7.55;;
12052;SDS011;6087;48.982;12.064;2023-07-02T12:26:03;9.40;;;6.82;;
12052;SDS011;6087;48.982;12.064;2023-07-02T12:28:30;12.10;;;7.10;;
12052;SDS011;6087;48.982;12.064;2023-07-02T12:30:57;11.77;;;8.40;;
12052;SDS011;6087;48.982;12.064;2023-07-02T12:33:24;9.48;;;7.15;;
12052;SDS011;6087;48.982;12.064;2023-07-02T12:35:50;12.73;;;7.40;;
12052;SDS011;6087;48.982;12.064;2023-07-02T12:38:17;11.63;;;7.03;;
12052;SDS011;6087;48.982;12.064;2023-07-02T12:40:46;13.80;;;7.25;;
12052;SDS011;6087;48.982;12.064;2023-07-02T12:43:13;9.20;;;7.07;;
12052;SDS011;6087;48.982;12.064;2023-07-02T12:45:40;11.32;;;6.95;;
12052;SDS011;6087;48.982;12.064;2023-07-02T12:48:07;9.75;;;7.03;;
12052;SDS011;6087;48.982;12.064;2023-07-02T12:50:36;8.57;;;6.30;;
12052;SDS011;6087;48.982;12.064;2023-07-02T12:53:03;10.82;;;7.63;;
12052;SDS011;6087;48.982;12.064;2023-07-02T12:55:30;10.30;;;6.95;;
12052;SDS011;6087;48.982;12.064;2023-07-02T12:57:59;13.57;;;6.63;;
12052;SDS011;6087;48.982;12.064;2023-07-02T13:00:26;11.32;;;6.20;;
12052;SDS011;6087;48.982;12.064;2023-07-02T13:02:53;12.60;;;7.20;;
12052;SDS011;6087;48.982;12.064;2023-07-02T13:05:22;11.57;;;7.15;;
12052;SDS011;6087;48.982;12.064;2023-07-02T13:07:51;10.80;;;7.57;;
12052;SDS011;6087;48.982;12.064;2023-07-02T13:10:18;10.55;;;7.03;;
12052;SDS011;6087;48.982;12.064;2023-07-02T13:12:45;11.63;;;6.72;;
12052;SDS011;6087;48.982;12.064;2023-07-02T13:15:14;11.75;;;7.63;;
12052;SDS011;6087;48.982;12.064;2023-07-02T13:17:40;8.57;;;6.85;;
12052;SDS011;6087;48.982;12.064;2023-07-02T13:20:09;12.82;;;6.47;;
12052;SDS011;6087;48.982;12.064;2023-07-02T13:22:36;9.38;;;7.30;;
12052;SDS011;6087;48.982;12.064;2023-07-02T13:25:03;9.13;;;6.80;;
12052;SDS011;6087;48.982;12.064;2023-07-02T13:27:31;8.18;;;6.20;;
12052;SDS011;6087;48.982;12.064;2023-07-02T13:29:58;9.23;;;6.70;;
12052;SDS011;6087;48.982;12.064;2023-07-02T13:32:27;12.45;;;7.05;;
12052;SDS011;6087;48.982;12.064;2023-07-02T13:34:54;11.15;;;6.82;;
12052;SDS011;6087;48.982;12.064;2023-07-02T13:37:21;9.48;;;6.32;;
12052;SDS011;6087;48.982;12.064;2023-07-02T13:39:48;11.57;;;6.40;;
12052;SDS011;6087;48.982;12.064;2023-07-02T13:42:15;11.05;;;6.32;;
12052;SDS011;6087;48.982;12.064;2023-07-02T13:44:43;12.52;;;7.05;;
12052;SDS011;6087;48.982;12.064;2023-07-02T13:47:10;8.55;;;6.15;;
12052;SDS011;6087;48.982;12.064;2023-07-02T13:49:41;9.73;;;6.80;;
12052;SDS011;6087;48.982;12.064;2023-07-02T13:52:08;9.88;;;6.20;;
12052;SDS011;6087;48.982;12.064;2023-07-02T13:54:35;9.32;;;6.65;;
12052;SDS011;6087;48.982;12.064;2023-07-02T13:57:02;10.98;;;6.47;;
12052;SDS011;6087;48.982;12.064;2023-07-02T13:59:31;11.52;;;6.90;;
12052;SDS011;6087;48.982;12.064;2023-07-02T14:01:58;8.88;;;6.70;;
12052;SDS011;6087;48.982;12.064;2023-07-02T14:04:25;11.75;;;6.75;;
12052;SDS011;6087;48.982;12.064;2023-07-02T14:06:52;10.50;;;6.80;;
12052;SDS011;6087;48.982;12.064;2023-07-02T14:09:25;11.57;;;6.63;;
12052;SDS011;6087;48.982;12.064;2023-07-02T14:11:52;9.32;;;6.50;;
12052;SDS011;6087;48.982;12.064;2023-07-02T14:14:22;11.60;;;6.63;;
12052;SDS011;6087;48.982;12.064;2023-07-02T14:16:50;9.27;;;6.75;;
12052;SDS011;6087;48.982;12.064;2023-07-02T14:19:17;7.47;;;5.90;;
12052;SDS011;6087;48.982;12.064;2023-07-02T14:21:49;10.70;;;6.75;;
12052;SDS011;6087;48.982;12.064;2023-07-02T14:24:16;10.45;;;6.82;;
12052;SDS011;6087;48.982;12.064;2023-07-02T14:26:43;9.13;;;6.18;;
12052;SDS011;6087;48.982;12.064;2023-07-02T14:29:10;9.85;;;6.75;;
12052;SDS011;6087;48.982;12.064;2023-07-02T14:31:37;11.45;;;7.20;;
12052;SDS011;6087;48.982;12.064;2023-07-02T14:34:05;11.52;;;7.28;;
12052;SDS011;6087;48.982;12.064;2023-07-02T14:36:32;9.85;;;7.05;;
12052;SDS011;6087;48.982;12.064;2023-07-02T14:38:59;9.25;;;6.72;;
12052;SDS011;6087;48.982;12.064;2023-07-02T14:41:26;9.82;;;6.97;;
12052;SDS011;6087;48.982;12.064;2023-07-02T14:43:55;12.25;;;6.68;;
12052;SDS011;6087;48.982;12.064;2023-07-02T14:46:22;10.55;;;7.00;;
12052;SDS011;6087;48.982;12.064;2023-07-02T14:48:49;14.40;;;7.57;;